Time;durP1;ratioP1;P1;durP2;ratioP2;P2;SDS_P1;SDS_P2;PMS_P1;PMS_P2;Temp;Humidity;BMP_temperature;BMP_pressure;BME280_temperature;BME280_humidity;BME280_pressure;Samples;Min_cycle;Max_cycle;Signal;HPM_P1;HPM_P2
2022/04/17 00:02:05;;;;;;;1.37;1.33;;;10.70;99.90;11.10;102855.00;;;;5074889;28;20191;-76
2022/04/17 00:04:43;;;;;;;1.67;1.00;;;10.70;99.90;10.80;102796.00;;;;5074578;28;20743;-78
2022/04/17 00:07:11;;;;;;;0.60;0.60;;;10.60;99.90;10.70;102841.00;;;;5073363;28;20177;-77
2022/04/17 00:09:45;;;;;;;1.20;1.00;;;10.60;99.90;10.80;102796.00;;;;5074425;28;20183;-77
2022/04/17 00:12:18;;;;;;;0.10;0.10;;;10.50;99.90;10.80;102847.00;;;;5057762;28;20223;-77
2022/04/17 00:14:54;;;;;;;0.30;0.30;;;10.60;99.90;10.70;102848.00;;;;5073950;28;20252;-77
2022/04/17 00:17:27;;;;;;;0.20;0.20;;;10.60;99.90;10.60;102832.00;;;;5074530;28;20275;-77
2022/04/17 00:20:04;;;;;;;0.50;0.40;;;10.60;99.90;11.20;102853.00;;;;5072933;28;20264;-77
2022/04/17 00:22:32;;;;;;;0.33;0.30;;;10.70;99.90;10.90;102826.00;;;;5057054;28;20192;-77
2022/04/17 00:25:09;;;;;;;0.20;0.20;;;10.70;99.90;10.90;102835.00;;;;5057132;28;20191;-77
2022/04/17 00:27:46;;;;;;;0.20;0.20;;;10.60;99.90;10.60;102796.00;;;;5056896;28;20181;-77
2022/04/17 00:30:23;;;;;;;0.10;0.10;;;10.50;99.90;10.80;102798.00;;;;5057109;28;20188;-77
2022/04/17 00:33:02;;;;;;;0.20;0.20;;;10.50;99.90;10.80;102823.00;;;;5073283;28;20227;-76
2022/04/17 00:35:41;;;;;;;0.87;0.87;;;10.50;99.90;10.60;102799.00;;;;5073191;28;20189;-75
2022/04/17 00:38:09;;;;;;;0.13;0.13;;;10.40;99.90;10.40;102823.00;;;;5073677;28;20193;-75
2022/04/17 00:40:40;;;;;;;0.20;0.20;;;10.20;99.90;10.50;102823.00;;;;5057368;28;20690;-75
2022/04/17 00:43:33;;;;;;;0.30;0.30;;;10.20;99.90;10.10;102829.00;;;;5056280;28;20525;-76
2022/04/17 00:46:12;;;;;;;0.23;0.23;;;10.10;99.90;10.30;102821.00;;;;5056824;28;20217;-76
2022/04/17 00:48:43;;;;;;;0.27;0.27;;;10.00;99.90;10.50;102823.00;;;;5073845;28;20185;-75
2022/04/17 00:51:16;;;;;;;0.10;0.10;;;10.00;99.90;10.40;102827.00;;;;5073119;28;20236;-75
2022/04/17 00:53:52;;;;;;;0.20;0.20;;;10.10;99.90;10.40;102805.00;;;;5073352;28;20264;-75
2022/04/17 00:56:21;;;;;;;0.13;0.13;;;10.20;99.90;10.10;102828.00;;;;5071281;28;20193;-75
2022/04/17 00:58:55;;;;;;;0.40;0.40;;;9.90;99.90;10.10;102807.00;;;;5057342;28;20196;-75
2022/04/17 01:01:30;;;;;;;0.20;0.20;;;9.90;99.90;10.20;102829.00;;;;5073271;28;20188;-75
2022/04/17 01:04:01;;;;;;;0.30;0.30;;;9.80;99.90;10.10;102814.00;;;;5056384;28;20185;-75
2022/04/17 01:06:30;;;;;;;0.30;0.30;;;9.90;99.90;10.00;102819.00;;;;5056337;28;20181;-75
2022/04/17 01:09:00;;;;;;;0.57;0.47;;;9.80;99.90;9.70;102793.00;;;;5074610;28;20181;-76
2022/04/17 01:11:31;;;;;;;0.20;0.20;;;9.60;99.90;9.70;102825.00;;;;5073238;28;20200;-76
2022/04/17 01:14:01;;;;;;;0.33;0.33;;;9.60;99.90;9.60;102801.00;;;;5072230;28;20186;-76
2022/04/17 01:16:30;;;;;;;0.30;0.30;;;9.50;99.90;9.70;102802.00;;;;5073114;28;20314;-76
2022/04/17 01:19:04;;;;;;;0.20;0.20;;;9.50;99.90;9.50;102813.00;;;;5056045;28;20181;-76
2022/04/17 01:21:37;;;;;;;0.37;0.37;;;9.40;99.90;9.70;102792.00;;;;5056404;28;20182;-75
2022/04/17 01:26:58;;;;;;;0.30;0.30;;;9.40;99.90;9.90;102776.00;;;;5072849;28;20199;-75
2022/04/17 01:29:38;;;;;;;0.40;0.40;;;9.60;99.90;9.30;102808.00;;;;5072111;28;20667;-75
2022/04/17 01:32:11;;;;;;;0.87;0.87;;;9.40;99.90;9.40;102811.00;;;;5072606;28;20213;-76
2022/04/17 01:34:41;;;;;;;0.43;0.43;;;9.40;99.90;9.60;102808.00;;;;5055382;28;20189;-76
2022/04/17 01:37:18;;;;;;;0.30;0.30;;;9.50;99.90;9.80;102805.00;;;;5072224;28;20177;-76
2022/04/17 01:39:52;;;;;;;0.57;0.57;;;9.60;99.90;9.80;102800.00;;;;5072741;28;20628;-75
2022/04/17 01:42:26;;;;;;;0.30;0.30;;;9.70;99.90;9.70;102799.00;;;;5072701;28;20251;-76
2022/04/17 01:44:56;;;;;;;0.20;0.20;;;9.70;99.90;9.70;102804.00;;;;5072715;28;20188;-77
2022/04/17 01:47:29;;;;;;;0.30;0.30;;;9.60;99.90;9.50;102778.00;;;;5071520;28;20275;-77
2022/04/17 01:49:55;;;;;;;0.23;0.23;;;9.50;99.90;9.60;102799.00;;;;5071669;28;20228;-76
2022/04/17 01:52:32;;;;;;;0.23;0.23;;;9.50;99.90;9.40;102791.00;;;;5055655;28;20206;-75
2022/04/17 01:55:06;;;;;;;0.50;0.50;;;9.30;99.90;9.70;102786.00;;;;5073645;28;20178;-77
2022/04/17 01:57:40;;;;;;;0.20;0.20;;;9.40;99.90;9.70;102786.00;;;;5073047;28;20168;-77
2022/04/17 02:00:12;;;;;;;0.40;0.40;;;9.40;99.90;9.60;102742.00;;;;5072437;28;20172;-76
2022/04/17 02:02:46;;;;;;;0.20;0.20;;;9.50;99.90;9.30;102790.00;;;;5071600;28;20555;-76
2022/04/17 02:05:22;;;;;;;0.63;0.63;;;9.30;99.90;9.50;102785.00;;;;5071487;28;20243;-76
2022/04/17 02:07:56;;;;;;;0.20;0.20;;;9.30;99.90;9.20;102792.00;;;;5072617;28;20637;-75
2022/04/17 02:10:30;;;;;;;1.53;1.30;;;9.20;99.90;9.60;102744.00;;;;5055148;28;20196;-76
2022/04/17 02:13:00;;;;;;;1.80;0.70;;;9.30;99.90;9.50;102781.00;;;;5072013;28;20224;-76
2022/04/17 02:15:30;;;;;;;0.20;0.20;;;9.40;99.90;9.50;102786.00;;;;5072477;28;20165;-74
2022/04/17 02:17:58;;;;;;;0.77;0.77;;;9.30;99.90;9.30;102782.00;;;;5070965;28;20188;-74
2022/04/17 02:20:30;;;;;;;1.00;0.57;;;9.20;99.90;9.40;102777.00;;;;5073370;28;20273;-74
2022/04/17 02:23:06;;;;;;;0.93;0.93;;;9.30;99.90;9.20;102781.00;;;;5072113;28;20251;-74
2022/04/17 02:25:40;;;;;;;0.20;0.20;;;9.10;99.90;9.00;102776.00;;;;5070843;28;20177;-73
2022/04/17 02:28:13;;;;;;;0.20;0.20;;;9.00;99.90;9.00;102778.00;;;;5055828;28;20181;-74
2022/04/17 02:30:42;;;;;;;2.37;0.93;;;8.90;99.90;9.00;102786.00;;;;5055283;28;20699;-74
2022/04/17 02:33:17;;;;;;;0.30;0.30;;;8.90;99.90;8.80;102767.00;;;;5072197;28;20213;-75
2022/04/17 02:35:53;;;;;;;0.57;0.57;;;8.80;99.90;8.90;102768.00;;;;5072148;28;20229;-75
2022/04/17 02:38:25;;;;;;;0.50;0.50;;;8.70;99.90;8.70;102756.00;;;;5072305;28;20204;-75
2022/04/17 02:41:04;;;;;;;0.20;0.20;;;8.70;99.90;8.80;102769.00;;;;5071813;28;20634;-75
2022/04/17 02:43:40;;;;;;;0.30;0.30;;;8.70;99.90;9.10;102784.00;;;;5070681;28;20168;-76
2022/04/17 02:47:42;;;;;;;0.20;0.20;;;8.80;99.90;8.70;102731.00;;;;5071799;28;20175;-75
2022/04/17 02:49:09;;;;;;;0.40;0.40;;;8.70;99.90;8.70;102768.00;;;;5071240;28;20222;-74
2022/04/17 02:51:43;;;;;;;0.43;0.43;;;8.50;99.90;8.90;102770.00;;;;5055547;28;20203;-74
2022/04/17 02:54:19;;;;;;;0.40;0.40;;;8.70;99.90;8.60;102764.00;;;;5070955;28;20185;-74
2022/04/17 02:56:50;;;;;;;1.20;1.10;;;8.60;99.90;8.20;102712.00;;;;5071671;28;20241;-75
2022/04/17 02:59:24;;;;;;;0.20;0.20;;;8.40;99.90;8.70;102772.00;;;;5055126;28;20182;-75
2022/04/17 03:07:29;;;;;;;0.77;0.57;;;8.30;99.90;8.40;102757.00;;;;5070946;28;20249;-73
2022/04/17 03:09:57;;;;;;;0.87;0.87;;;8.40;99.90;8.30;102764.00;;;;5073141;28;20179;-76
2022/04/17 03:12:35;;;;;;;1.40;1.30;;;8.40;99.90;8.40;102748.00;;;;5054174;28;20219;-77
2022/04/17 03:15:01;;;;;;;1.60;0.90;;;8.30;99.90;8.30;102751.00;;;;5071582;28;20646;-77
2022/04/17 03:17:29;;;;;;;1.33;1.23;;;8.40;99.90;8.20;102749.00;;;;5070719;28;20222;-77
2022/04/17 03:20:00;;;;;;;0.20;0.20;;;8.30;99.90;8.20;102721.00;;;;5057734;28;20188;-77
2022/04/17 03:22:29;;;;;;;0.53;0.53;;;8.20;99.90;8.40;102766.00;;;;5058843;28;20626;-77
2022/04/17 03:24:59;;;;;;;0.40;0.40;;;8.20;99.90;8.10;102761.00;;;;5075887;28;20237;-77
2022/04/17 03:27:30;;;;;;;0.57;0.30;;;8.20;99.90;8.40;102746.00;;;;5058610;28;20191;-76
2022/04/17 03:29:59;;;;;;;0.83;0.63;;;8.30;99.90;8.40;102754.00;;;;5057850;28;20266;-75
2022/04/17 03:32:38;;;;;;;1.83;1.67;;;8.40;99.90;8.10;102744.00;;;;5057678;28;20229;-76
2022/04/17 03:35:18;;;;;;;0.20;0.20;;;8.20;99.90;8.00;102753.00;;;;5074407;28;20267;-76
2022/04/17 03:37:51;;;;;;;0.60;0.60;;;8.10;99.90;7.90;102692.00;;;;5058277;28;20183;-76
2022/04/17 03:40:19;;;;;;;0.20;0.20;;;7.90;99.90;7.90;102730.00;;;;5076080;28;20620;-76
2022/04/17 03:42:51;;;;;;;0.20;0.20;;;7.90;99.90;8.20;102755.00;;;;5057136;28;20198;-76
2022/04/17 03:45:23;;;;;;;0.90;0.47;;;8.10;99.90;7.80;102732.00;;;;5073671;28;20180;-76
2022/04/17 03:47:54;;;;;;;0.13;0.13;;;7.90;99.90;8.30;102738.00;;;;5074515;28;20192;-76
2022/04/17 03:50:25;;;;;;;0.93;0.93;;;8.00;99.90;8.00;102738.00;;;;5058346;28;20552;-76
2022/04/17 03:52:56;;;;;;;1.50;1.40;;;7.90;99.90;7.70;102762.00;;;;5074622;28;20210;-76
2022/04/17 03:55:33;;;;;;;0.20;0.20;;;7.90;99.90;7.90;102749.00;;;;5074281;28;20171;-76
2022/04/17 03:58:08;;;;;;;11.13;10.17;;;7.90;99.90;7.60;102738.00;;;;5070195;28;20195;-76
2022/04/17 04:00:37;;;;;;;0.20;0.20;;;7.70;99.90;7.80;102693.00;;;;5038170;28;20187;-76
2022/04/17 04:03:12;;;;;;;0.20;0.20;;;7.70;99.90;7.90;102744.00;;;;5053628;28;20227;-76
2022/04/17 04:05:37;;;;;;;0.20;0.20;;;7.70;99.90;7.60;102695.00;;;;5055582;28;20623;-75
2022/04/17 04:08:08;;;;;;;0.20;0.20;;;7.60;99.90;7.80;102738.00;;;;5072354;28;20192;-76
2022/04/17 04:10:40;;;;;;;0.30;0.30;;;7.70;99.90;7.90;102686.00;;;;5072707;28;20181;-76
2022/04/17 04:13:11;;;;;;;0.77;0.77;;;7.70;99.90;7.80;102737.00;;;;5074372;28;20197;-75
2022/04/17 04:15:43;;;;;;;0.30;0.30;;;7.70;99.90;7.40;102700.00;;;;5057140;28;20184;-76
2022/04/17 04:18:17;;;;;;;0.20;0.20;;;7.50;99.90;7.90;102726.00;;;;5073281;28;20250;-76
2022/04/17 04:20:53;;;;;;;0.20;0.20;;;7.70;99.90;8.00;102735.00;;;;5074080;28;20200;-75
2022/04/17 04:23:36;;;;;;;3.40;1.03;;;7.80;99.90;7.70;102725.00;;;;5058004;28;20525;-75
2022/04/17 04:26:10;;;;;;;0.20;0.20;;;7.60;99.90;7.50;102725.00;;;;5074092;28;20701;-74
2022/04/17 04:28:36;;;;;;;0.50;0.50;;;7.60;99.90;7.80;102720.00;;;;5074658;28;20193;-74
2022/04/17 04:31:15;;;;;;;0.30;0.30;;;7.60;99.90;7.40;102718.00;;;;5073999;28;20546;-74
2022/04/17 04:33:51;;;;;;;0.53;0.53;;;7.50;99.90;7.80;102712.00;;;;5074065;28;20266;-75
2022/04/17 04:36:22;;;;;;;0.40;0.40;;;7.60;99.90;7.70;102712.00;;;;5056512;28;20175;-75
2022/04/17 04:38:51;;;;;;;0.70;0.70;;;7.60;99.90;7.50;102651.00;;;;5074174;28;20183;-74
2022/04/17 04:41:19;;;;;;;0.40;0.40;;;7.50;99.90;7.60;102722.00;;;;5073569;28;20274;-75
2022/04/17 04:43:50;;;;;;;0.30;0.30;;;7.50;99.90;7.50;102723.00;;;;5070281;28;20182;-75
2022/04/17 04:46:19;;;;;;;0.50;0.50;;;7.50;99.90;7.40;102658.00;;;;5055515;28;20180;-76
2022/04/17 04:51:41;;;;;;;0.57;0.50;;;7.40;99.90;7.40;102708.00;;;;5072614;28;20700;-74
2022/04/17 04:54:08;;;;;;;0.20;0.20;;;7.30;99.90;7.20;102707.00;;;;5074077;28;20172;-74
2022/04/17 04:56:34;;;;;;;0.20;0.20;;;7.30;99.90;7.20;102721.00;;;;5072167;28;20181;-75
2022/04/17 04:59:04;;;;;;;0.30;0.30;;;7.30;99.90;7.40;102719.00;;;;5056435;28;20187;-75
2022/04/17 05:01:37;;;;;;;0.20;0.20;;;7.30;99.90;7.30;102693.00;;;;5072718;28;20192;-77
2022/04/17 05:04:18;;;;;;;0.20;0.20;;;7.30;99.90;7.10;102689.00;;;;5072198;28;20180;-75
2022/04/17 05:06:49;;;;;;;2.53;2.40;;;7.30;99.90;7.00;102701.00;;;;5073310;28;20566;-75
2022/04/17 05:09:24;;;;;;;0.20;0.20;;;7.20;99.90;7.40;102703.00;;;;5057090;28;20620;-75
2022/04/17 05:11:53;;;;;;;0.40;0.40;;;7.30;99.90;7.30;102711.00;;;;5071880;28;20712;-74
2022/04/17 05:14:22;;;;;;;0.60;0.60;;;7.40;99.90;7.30;102700.00;;;;5055488;28;20628;-74
2022/04/17 05:16:56;;;;;;;0.20;0.20;;;7.40;99.90;7.70;102707.00;;;;5072865;28;20174;-74
2022/04/17 05:19:28;;;;;;;1.63;1.63;;;7.50;99.90;7.80;102675.00;;;;5056508;28;20210;-74
2022/04/17 05:22:03;;;;;;;0.40;0.40;;;7.60;99.90;8.00;102675.00;;;;5055650;28;20187;-74
2022/04/17 05:24:36;;;;;;;0.20;0.20;;;7.70;99.90;8.40;102679.00;;;;5055522;28;20219;-75
2022/04/17 05:27:07;;;;;;;0.20;0.20;;;8.00;99.90;9.10;102704.00;;;;5072100;28;20182;-76
2022/04/17 05:29:38;;;;;;;0.33;0.33;;;8.60;99.90;10.20;102727.00;;;;5056525;28;20279;-75
2022/04/17 05:32:10;;;;;;;0.40;0.40;;;9.50;99.90;10.20;102711.00;;;;5072274;28;20255;-74
2022/04/17 05:34:40;;;;;;;0.37;0.37;;;10.10;99.90;11.10;102722.00;;;;5055377;28;20179;-74
2022/04/17 05:37:13;;;;;;;2.53;1.50;;;10.60;99.90;11.00;102682.00;;;;5072902;28;20167;-73
2022/04/17 05:39:47;;;;;;;1.07;0.97;;;10.90;99.90;12.00;102664.00;;;;5073871;28;20175;-74
2022/04/17 05:42:18;;;;;;;0.33;0.33;;;11.50;99.90;12.40;102709.00;;;;5070653;28;20587;-72
2022/04/17 05:44:54;;;;;;;0.13;0.13;;;11.90;99.90;12.70;102701.00;;;;5055126;28;20183;-73
2022/04/17 05:47:29;;;;;;;0.20;0.20;;;12.10;99.90;12.70;102671.00;;;;5072063;28;20181;-73
2022/04/17 05:50:03;;;;;;;0.70;0.70;;;12.50;99.90;12.50;102704.00;;;;5072875;28;20221;-73
2022/04/17 05:52:37;;;;;;;0.20;0.20;;;12.30;99.90;13.20;102697.00;;;;5055086;28;20438;-73
2022/04/17 05:55:06;;;;;;;0.10;0.10;;;12.50;99.90;14.10;102694.00;;;;5072514;28;20178;-75
2022/04/17 05:57:40;;;;;;;0.20;0.20;;;13.20;99.90;14.70;102681.00;;;;5073056;28;20235;-75
2022/04/17 06:00:08;;;;;;;0.13;0.13;;;14.00;99.90;14.80;102682.00;;;;5071536;28;20172;-76
2022/04/17 06:02:38;;;;;;;0.10;0.10;;;14.50;99.90;15.20;102673.00;;;;5072175;28;20664;-79
2022/04/17 06:05:05;;;;;;;0.10;0.10;;;14.70;99.90;13.90;102681.00;;;;5055788;28;20553;-79
2022/04/17 06:07:34;;;;;;;1.80;0.47;;;14.40;99.90;14.20;102690.00;;;;5053862;28;20210;-79
2022/04/17 06:10:08;;;;;;;0.17;0.17;;;14.60;99.90;14.20;102647.00;;;;5055020;28;20197;-78
2022/04/17 06:12:41;;;;;;;0.43;0.43;;;14.50;99.90;14.10;102658.00;;;;5072146;28;20205;-77
2022/04/17 06:15:11;;;;;;;0.37;0.37;;;14.00;99.90;15.80;102633.00;;;;5072763;28;20180;-77
2022/04/17 06:17:50;;;;;;;0.83;0.83;;;14.70;99.90;16.30;102668.00;;;;5072127;28;20178;-77
2022/04/17 06:20:24;;;;;;;0.57;0.57;;;15.60;98.90;16.00;102639.00;;;;5072093;28;20186;-76
2022/04/17 06:22:53;;;;;;;1.03;1.03;;;15.60;98.30;15.80;102667.00;;;;5054406;28;20184;-78
2022/04/17 06:25:27;;;;;;;0.10;0.10;;;15.50;98.30;15.30;102670.00;;;;5054114;28;20192;-78
2022/04/17 06:27:59;;;;;;;0.40;0.40;;;15.70;97.70;17.00;102638.00;;;;5072604;28;20169;-79
2022/04/17 06:30:38;;;;;;;0.20;0.20;;;16.30;96.80;16.20;102670.00;;;;5072288;28;20168;-80
2022/04/17 06:33:12;;;;;;;0.40;0.40;;;16.10;96.80;17.30;102669.00;;;;5071542;28;20608;-78
2022/04/17 06:35:38;;;;;;;0.10;0.10;;;16.70;96.10;16.30;102668.00;;;;5071865;28;20175;-77
2022/04/17 06:38:17;;;;;;;0.25;0.25;;;16.70;95.20;16.50;102695.00;;;;5072411;28;20199;-78
2022/04/17 06:40:51;;;;;;;0.30;0.30;;;16.30;96.10;16.60;102672.00;;;;5071952;28;20613;-78
2022/04/17 06:43:22;;;;;;;0.68;0.68;;;16.60;95.00;16.30;102688.00;;;;5070816;28;20591;-78
2022/04/17 06:45:53;;;;;;;0.15;0.15;;;16.50;95.10;18.10;102599.00;;;;5055862;28;20165;-79
2022/04/17 06:48:25;;;;;;;0.15;0.15;;;17.20;95.20;17.00;102685.00;;;;5055263;28;20227;-76
2022/04/17 06:50:56;;;;;;;0.13;0.13;;;17.20;94.20;14.60;102713.00;;;;5055608;28;20212;-78
2022/04/17 06:53:27;;;;;;;0.77;0.77;;;15.40;95.70;14.50;102694.00;;;;5054378;28;20279;-79
2022/04/17 06:55:55;;;;;;;1.13;1.05;;;15.00;95.80;16.30;102684.00;;;;5059014;28;20636;-79
2022/04/17 06:58:31;;;;;;;0.50;0.47;;;15.80;95.60;17.60;102641.00;;;;5058712;28;20200;-80
2022/04/17 07:00:57;;;;;;;0.28;0.28;;;16.60;94.80;16.40;102672.00;;;;5076813;28;20196;-79
2022/04/17 07:03:25;;;;;;;0.20;0.20;;;16.60;94.20;14.90;102677.00;;;;5074988;28;20208;-80
2022/04/17 07:05:53;;;;;;;0.35;0.35;;;15.90;94.40;15.90;102671.00;;;;5075253;28;20185;-79
2022/04/17 07:08:21;;;;;;;0.68;0.68;;;15.80;95.00;17.60;102657.00;;;;5075707;28;20166;-79
2022/04/17 07:10:56;;;;;;;6.22;1.65;;;16.70;94.30;17.20;102612.00;;;;5075333;28;20256;-76
2022/04/17 07:13:27;;;;;;;0.10;0.10;;;17.20;93.40;17.00;102628.00;;;;5073644;28;20207;-78
2022/04/17 07:15:58;;;;;;;0.10;0.10;;;17.00;94.10;16.20;102679.00;;;;5075651;28;20177;-77
2022/04/17 07:18:24;;;;;;;0.15;0.15;;;17.00;93.00;16.40;102658.00;;;;5058043;28;20528;-78
2022/04/17 07:20:56;;;;;;;0.10;0.10;;;16.70;93.50;14.20;102678.00;;;;5074067;28;20224;-76
2022/04/17 07:23:21;;;;;;;0.20;0.20;;;15.10;94.80;14.80;102672.00;;;;5057956;28;20185;-77
2022/04/17 07:25:53;;;;;;;0.22;0.22;;;14.90;95.50;15.50;102677.00;;;;5058145;28;20548;-73
2022/04/17 07:28:21;;;;;;;0.10;0.10;;;15.10;96.00;15.30;102664.00;;;;5069772;28;20187;-74
2022/04/17 07:30:50;;;;;;;0.52;0.52;;;15.20;96.00;17.00;102617.00;;;;5057716;28;20188;-74
2022/04/17 07:33:22;;;;;;;0.30;0.30;;;16.20;95.60;15.70;102676.00;;;;5067204;28;20216;-73
2022/04/17 07:35:51;;;;;;;0.35;0.35;;;16.20;94.60;17.60;102628.00;;;;5058660;28;20185;-75
2022/04/17 07:38:22;;;;;;;0.10;0.10;;;17.10;93.90;17.60;102672.00;;;;5076207;28;20684;-74
2022/04/17 07:40:56;;;;;;;3.78;3.50;;;17.10;94.30;15.50;102684.00;;;;5057696;28;20268;-73
2022/04/17 07:43:24;;;;;;;0.55;0.55;;;16.70;93.40;14.80;102680.00;;;;5055319;28;20189;-73
2022/04/17 07:45:53;;;;;;;0.80;0.80;;;15.70;94.30;15.20;102681.00;;;;5057668;28;20243;-74
2022/04/17 07:48:24;;;;;;;0.30;0.20;;;15.30;94.90;17.40;102662.00;;;;5073898;28;20575;-74
2022/04/17 07:50:58;;;;;;;2.47;0.25;;;16.60;94.70;18.80;102648.00;;;;5075035;28;20236;-73
2022/04/17 07:53:29;;;;;;;0.45;0.32;;;17.60;93.80;18.10;102657.00;;;;5074473;28;21097;-73
2022/04/17 07:56:05;;;;;;;0.50;0.50;;;17.80;92.80;18.90;102587.00;;;;5052207;28;20311;-73
2022/04/17 07:58:38;;;;;;;0.93;0.70;;;18.20;92.60;18.10;102644.00;;;;5038026;28;20227;-73
2022/04/17 08:01:14;;;;;;;0.20;0.20;;;18.20;92.00;17.80;102631.00;;;;5054749;28;20170;-72
2022/04/17 08:03:48;;;;;;;0.22;0.22;;;17.70;91.70;17.00;102657.00;;;;5043366;28;20657;-72
2022/04/17 08:06:17;;;;;;;0.20;0.20;;;17.70;92.00;17.70;102650.00;;;;5054245;28;20194;-72
2022/04/17 08:08:51;;;;;;;0.10;0.10;;;17.40;92.70;18.90;102644.00;;;;5072044;28;20200;-72
2022/04/17 08:11:26;;;;;;;0.30;0.30;;;18.30;92.70;19.80;102601.00;;;;5063478;28;20548;-72
2022/04/17 08:13:54;;;;;;;0.10;0.10;;;19.20;89.60;19.10;102649.00;;;;5072826;28;20173;-72
2022/04/17 08:16:31;;;;;;;0.10;0.10;;;19.10;90.80;20.10;102631.00;;;;5049005;28;20189;-72
2022/04/17 08:19:08;;;;;;;0.20;0.20;;;19.40;88.00;16.60;102647.00;;;;5074602;28;20673;-73
2022/04/17 08:21:44;;;;;;;1.10;1.00;;;17.60;88.30;19.00;102587.00;;;;5071633;28;20240;-73
2022/04/17 08:24:15;;;;;;;0.30;0.25;;;18.30;89.10;18.90;102583.00;;;;5044433;28;20197;-74
2022/04/17 08:26:51;;;;;;;0.10;0.10;;;18.90;87.50;17.80;102645.00;;;;5058640;28;20174;-75
2022/04/17 08:29:25;;;;;;;0.10;0.10;;;17.90;90.20;18.60;102615.00;;;;5053464;28;20209;-76
2022/04/17 08:31:53;;;;;;;0.10;0.10;;;18.50;90.30;19.50;102628.00;;;;5058494;28;20244;-76
2022/04/17 08:34:24;;;;;;;0.82;0.82;;;19.00;86.60;19.50;102620.00;;;;5065201;28;20720;-75
2022/04/17 08:36:59;;;;;;;2.40;2.28;;;19.30;84.00;18.90;102624.00;;;;5050509;28;20189;-75
2022/04/17 08:39:31;;;;;;;0.65;0.65;;;19.10;82.40;19.60;102621.00;;;;5044577;28;20205;-75
2022/04/17 08:42:05;;;;;;;2.50;1.73;;;19.30;82.30;19.20;102628.00;;;;5055449;28;20249;-83
2022/04/17 08:44:50;;;;;;;0.30;0.30;;;19.20;81.20;19.30;102610.00;;;;5036833;28;20177;-83
2022/04/17 08:47:16;;;;;;;0.30;0.30;;;19.10;79.70;18.90;102571.00;;;;5038150;28;20187;-73
2022/04/17 08:49:43;;;;;;;0.20;0.20;;;18.80;81.30;18.00;102599.00;;;;5063659;28;20181;-73
2022/04/17 08:52:15;;;;;;;0.15;0.15;;;18.20;81.10;18.10;102611.00;;;;5072966;28;20249;-74
2022/04/17 08:54:45;;;;;;;0.20;0.20;;;18.10;82.40;19.40;102582.00;;;;5073385;28;20239;-74
2022/04/17 08:57:16;;;;;;;0.30;0.30;;;18.60;83.00;19.00;102621.00;;;;5055540;28;20204;-74
2022/04/17 08:59:45;;;;;;;0.40;0.40;;;19.10;81.50;19.50;102607.00;;;;5074751;28;20182;-76
2022/04/17 09:02:11;;;;;;;0.30;0.30;;;19.10;81.00;19.60;102601.00;;;;5073867;28;20201;-75
2022/04/17 09:04:41;;;;;;;0.30;0.30;;;19.40;80.90;17.80;102621.00;;;;5073087;28;20219;-73
2022/04/17 09:07:11;;;;;;;0.10;0.10;;;18.40;81.00;18.60;102609.00;;;;5072871;28;20154;-75
2022/04/17 09:09:57;;;;;;;0.10;0.10;;;18.50;81.90;18.20;102616.00;;;;5056339;28;20185;-75
2022/04/17 09:12:32;;;;;;;0.28;0.28;;;18.30;82.00;18.30;102618.00;;;;5056166;28;20697;-75
2022/04/17 09:15:04;;;;;;;0.10;0.10;;;18.10;83.00;19.10;102608.00;;;;5073105;28;20179;-74
2022/04/17 09:17:38;;;;;;;0.20;0.20;;;18.60;82.20;19.80;102603.00;;;;5072515;28;20214;-74
2022/04/17 09:20:22;;;;;;;0.30;0.30;;;19.30;82.10;19.00;102611.00;;;;5072180;28;20681;-73
2022/04/17 09:22:59;;;;;;;0.65;0.65;;;19.10;80.20;20.50;102599.00;;;;5056797;28;20273;-74
2022/04/17 09:25:28;;;;;;;1.83;0.80;;;19.80;80.10;19.90;102597.00;;;;5072088;28;20174;-74
2022/04/17 09:28:01;;;;;;;0.40;0.40;;;19.80;79.70;19.90;102599.00;;;;5074185;28;20170;-74
2022/04/17 09:30:40;;;;;;;0.20;0.20;;;19.90;78.80;20.10;102604.00;;;;5071547;28;20182;-74
2022/04/17 09:33:13;;;;;;;0.10;0.10;;;19.80;79.50;19.20;102606.00;;;;5066458;28;20218;-71
2022/04/17 09:35:41;;;;;;;0.22;0.22;;;19.40;79.20;18.60;102603.00;;;;5052611;28;20538;-74
2022/04/17 09:38:15;;;;;;;1.23;0.88;;;19.00;80.10;17.10;102610.00;;;;5061129;28;20298;-75
2022/04/17 09:40:46;;;;;;;0.70;0.70;;;18.00;80.20;17.70;102587.00;;;;5072137;28;20180;-75
2022/04/17 09:43:17;;;;;;;0.50;0.50;;;17.60;81.60;18.40;102587.00;;;;5054974;28;20325;-75
2022/04/17 09:45:57;;;;;;;0.47;0.47;;;17.90;83.40;19.00;102581.00;;;;5072571;28;20320;-75
2022/04/17 09:48:23;;;;;;;0.20;0.20;;;18.30;82.90;19.00;102538.00;;;;5055568;28;20212;-75
2022/04/17 09:50:52;;;;;;;0.30;0.30;;;18.70;81.30;20.40;102536.00;;;;5071421;28;20421;-76
2022/04/17 09:53:38;;;;;;;0.30;0.30;;;19.50;80.50;20.00;102561.00;;;;5055508;28;20224;-76
2022/04/17 09:56:11;;;;;;;0.20;0.20;;;19.70;78.60;19.30;102571.00;;;;5056023;28;20208;-76
2022/04/17 09:58:49;;;;;;;0.90;0.57;;;19.20;79.60;19.30;102557.00;;;;5071652;28;20184;-77
2022/04/17 10:01:19;;;;;;;1.13;0.95;;;19.00;79.50;18.20;102567.00;;;;5054369;28;20192;-74
2022/04/17 10:03:52;;;;;;;1.58;1.05;;;18.80;78.60;19.00;102523.00;;;;5072609;28;20182;-74
2022/04/17 10:06:18;;;;;;;0.30;0.30;;;18.80;80.50;19.70;102503.00;;;;5072594;28;20185;-73
2022/04/17 10:08:47;;;;;;;0.32;0.32;;;19.20;80.40;19.60;102536.00;;;;5072669;28;20269;-74
2022/04/17 10:11:17;;;;;;;0.68;0.68;;;19.30;77.90;19.80;102531.00;;;;5073234;28;20234;-73
2022/04/17 10:13:49;;;;;;;0.25;0.25;;;19.50;74.70;19.10;102534.00;;;;5072243;28;20188;-73
2022/04/17 10:16:20;;;;;;;1.17;1.08;;;19.00;77.20;19.40;102530.00;;;;5059013;28;20280;-74
2022/04/17 10:18:51;;;;;;;0.40;0.40;;;19.20;77.50;19.80;102532.00;;;;5071005;28;20180;-73
2022/04/17 10:34:27;;;;;;;3.83;0.98;;;19.60;79.80;20.00;102537.00;;;;5063876;28;20687;-75
2022/04/17 10:37:18;;;;;;;0.85;0.80;;;19.80;80.90;20.30;102499.00;;;;5066596;28;20189;-76
2022/04/17 10:39:59;;;;;;;0.38;0.38;;;20.00;80.00;20.90;102486.00;;;;5070447;28;20268;-75
2022/04/17 10:42:36;;;;;;;0.25;0.25;;;20.40;79.20;20.10;102484.00;;;;5069016;28;20209;-74
2022/04/17 10:45:06;;;;;;;0.43;0.43;;;19.90;77.80;20.10;102516.00;;;;5070284;28;20204;-73
2022/04/17 10:47:33;;;;;;;0.25;0.25;;;19.90;77.80;19.10;102512.00;;;;5069059;28;20216;-75
2022/04/17 10:50:07;;;;;;;3.10;1.80;;;19.40;78.40;20.10;102496.00;;;;5069045;28;20166;-74
2022/04/17 10:52:36;;;;;;;0.10;0.10;;;19.60;78.50;19.70;102497.00;;;;5067010;28;20385;-74
2022/04/17 10:55:14;;;;;;;1.10;0.45;;;19.50;78.80;19.60;102499.00;;;;5085855;28;20194;-74
2022/04/17 10:57:50;;;;;;;0.85;0.65;;;19.70;79.20;20.00;102490.00;;;;5079874;28;20174;-74
2022/04/17 11:00:38;;;;;;;0.28;0.28;;;19.80;77.40;20.50;102467.00;;;;5085163;28;20608;-73
2022/04/17 11:03:21;;;;;;;0.35;0.35;;;20.20;76.90;20.80;102477.00;;;;5049185;28;20221;-73
2022/04/17 11:08:47;;;;;;;0.52;0.52;;;20.40;77.10;19.20;102472.00;;;;5049131;28;20543;-73
2022/04/17 11:11:16;;;;;;;0.88;0.82;;;19.90;77.00;19.20;102460.00;;;;5050267;28;20182;-72
2022/04/17 11:14:14;;;;;;;0.65;0.65;;;19.50;75.50;20.00;102455.00;;;;5049794;28;20705;-72
2022/04/17 11:16:58;;;;;;;1.23;1.13;;;19.40;77.30;19.60;102422.00;;;;5064917;28;20190;-73
2022/04/17 11:19:28;;;;;;;0.45;0.45;;;19.80;75.20;19.60;102459.00;;;;5048636;28;20186;-72
2022/04/17 11:22:00;;;;;;;2.40;1.08;;;19.70;77.70;20.80;102409.00;;;;5058090;28;20186;-72
2022/04/17 11:24:58;;;;;;;0.60;0.60;;;20.20;77.30;21.20;102438.00;;;;5066146;28;20323;-72
2022/04/17 11:27:45;;;;;;;0.90;0.40;;;20.60;77.30;20.90;102426.00;;;;5051518;28;20656;-70
2022/04/17 11:30:22;;;;;;;1.98;1.80;;;20.90;74.60;20.00;102395.00;;;;5068058;28;20178;-73
2022/04/17 11:32:51;;;;;;;1.27;1.17;;;20.50;75.40;19.60;102387.00;;;;5069340;28;20251;-73
2022/04/17 11:35:21;;;;;;;1.73;1.63;;;19.90;73.90;20.20;102421.00;;;;5050258;28;20190;-74
2022/04/17 11:38:05;;;;;;;1.42;0.90;;;19.80;75.20;18.70;102419.00;;;;5064707;28;20185;-74
2022/04/17 11:40:37;;;;;;;0.55;0.55;;;19.20;73.50;19.80;102425.00;;;;5068260;28;20180;-71
2022/04/17 11:43:15;;;;;;;1.60;1.17;;;19.50;74.30;19.60;102411.00;;;;5050149;28;20189;-71
2022/04/17 11:46:07;;;;;;;7.28;1.98;;;19.40;73.20;19.10;102424.00;;;;5052647;28;20536;-73